Time,TemperatureF,DewpointF,PressureIn,WindDirection,WindDirectionDegrees,WindSpeedMPH,WindSpeedGustMPH,Humidity,HourlyPrecipIn,Conditions,Clouds,dailyrainin,SoftwareType,DateUTC
2013-01-14 00:00:00,33.8,28.6,30.45,South,180,0.0,0.0,81,0.00,,,0.01,Wunderground v.1.15,2013-01-14 08:00:00,
2013-01-14 00:10:00,33.6,28.4,30.45,South,185,0.0,0.0,81,0.00,,,0.00,Wunderground v.1.15,2013-01-14 08:10:00,
2013-01-14 00:15:00,33.6,28.4,30.45,SSE,155,0.0,0.0,81,0.00,,,0.00,Wunderground v.1.15,2013-01-14 08:15:00,
2013-01-14 00:20:00,33.6,28.4,30.45,SE,124,0.0,0.0,81,0.00,,,0.00,Wunderground v.1.15,2013-01-14 08:20:00,
2013-01-14 00:25:00,33.5,28.0,30.45,SSE,159,0.0,0.0,80,0.00,,,0.00,Wunderground v.1.15,2013-01-14 08:25:00,
2013-01-14 00:35:00,33.4,27.9,30.45,SSE,168,0.0,2.0,80,0.00,,,0.00,Wunderground v.1.15,2013-01-14 08:35:00,
2013-01-14 00:45:00,33.3,27.8,30.45,South,175,0.0,2.0,80,0.00,,,0.00,Wunderground v.1.15,2013-01-14 08:45:00,
2013-01-14 00:55:00,33.4,28.2,30.45,South,175,0.0,2.0,81,0.00,,,0.00,Wunderground v.1.15,2013-01-14 08:55:00,
2013-01-14 01:05:00,33.5,28.3,30.45,South,175,0.0,0.0,81,0.00,,,0.00,Wunderground v.1.15,2013-01-14 09:05:00,
2013-01-14 01:15:00,33.6,28.4,30.45,South,175,0.0,0.0,81,0.00,,,0.00,Wunderground v.1.15,2013-01-14 09:15:00,
2013-01-14 01:25:00,33.7,28.2,30.45,South,175,0.0,0.0,80,0.00,,,0.00,Wunderground v.1.15,2013-01-14 09:25:00,
2013-01-14 01:35:00,33.8,28.0,30.45,South,175,0.0,2.0,79,0.00,,,0.00,Wunderground v.1.15,2013-01-14 09:35:00,
2013-01-14 01:40:00,33.8,27.7,30.45,South,175,0.0,2.0,78,0.00,,,0.00,Wunderground v.1.15,2013-01-14 09:40:00,
2013-01-14 01:45:00,33.9,27.8,30.45,South,175,0.0,2.0,78,0.00,,,0.00,Wunderground v.1.15,2013-01-14 09:45:00,
2013-01-14 01:55:00,33.9,27.4,30.46,South,175,0.0,2.0,77,0.00,,,0.00,Wunderground v.1.15,2013-01-14 09:55:00,
2013-01-14 02:05:00,33.9,27.4,30.46,South,175,0.0,0.0,77,0.00,,,0.00,Wunderground v.1.15,2013-01-14 10:05:00,
2013-01-14 02:15:00,33.9,27.4,30.46,South,175,0.0,0.0,77,0.00,,,0.00,Wunderground v.1.15,2013-01-14 10:15:00,
2013-01-14 02:25:00,34.0,27.5,30.46,WSW,258,0.0,0.0,77,0.00,,,0.00,Wunderground v.1.15,2013-01-14 10:25:00,
2013-01-14 02:35:00,34.0,27.9,30.46,WSW,258,0.0,0.0,78,0.00,,,0.00,Wunderground v.1.15,2013-01-14 10:35:00,
2013-01-14 02:45:00,34.1,28.3,30.46,WSW,258,0.0,0.0,79,0.00,,,0.00,Wunderground v.1.15,2013-01-14 10:45:00,
2013-01-14 02:55:00,34.2,29.3,30.47,WSW,258,0.0,0.0,82,0.00,,,0.00,Wunderground v.1.15,2013-01-14 10:55:00,
2013-01-14 03:05:00,34.2,29.3,30.47,WSW,257,0.0,0.0,82,0.00,,,0.00,Wunderground v.1.15,2013-01-14 11:05:00,
2013-01-14 03:15:00,34.2,29.3,30.46,South,185,0.0,0.0,82,0.00,,,0.00,Wunderground v.1.15,2013-01-14 11:15:00,
2013-01-14 03:25:00,34.3,29.4,30.46,South,175,0.0,0.0,82,0.00,,,0.00,Wunderground v.1.15,2013-01-14 11:25:00,
2013-01-14 03:35:00,34.3,29.7,30.46,SSE,156,0.0,1.0,83,0.00,,,0.00,Wunderground v.1.15,2013-01-14 11:35:00,
2013-01-14 03:45:00,34.3,30.0,30.46,SSE,160,0.0,1.0,84,0.00,,,0.00,Wunderground v.1.15,2013-01-14 11:45:00,
2013-01-14 03:50:00,34.4,30.1,30.46,SSE,160,0.0,1.0,84,0.00,,,0.00,Wunderground v.1.15,2013-01-14 11:50:00,
2013-01-14 03:55:00,34.4,30.1,30.46,SSE,160,0.0,1.0,84,0.00,,,0.00,Wunderground v.1.15,2013-01-14 11:55:00,
2013-01-14 04:05:00,34.4,29.8,30.46,SSE,160,0.0,0.0,83,0.00,,,0.00,Wunderground v.1.15,2013-01-14 12:05:00,
2013-01-14 04:15:00,34.3,29.7,30.46,SSE,160,0.0,0.0,83,0.00,,,0.00,Wunderground v.1.15,2013-01-14 12:15:00,
2013-01-14 04:25:00,34.4,29.8,30.46,South,180,0.0,0.0,83,0.00,,,0.00,Wunderground v.1.15,2013-01-14 12:25:00,
2013-01-14 04:35:00,34.4,29.8,30.45,SE,140,0.0,2.0,83,0.00,,,0.00,Wunderground v.1.15,2013-01-14 12:35:00,
2013-01-14 04:45:00,34.4,29.8,30.46,ESE,121,0.0,2.0,83,0.00,,,0.00,Wunderground v.1.15,2013-01-14 12:45:00,
2013-01-14 04:55:00,34.4,29.8,30.45,SSE,165,0.0,2.0,83,0.00,,,0.00,Wunderground v.1.15,2013-01-14 12:55:00,
2013-01-14 05:00:00,34.4,29.8,30.46,SSE,165,0.0,0.0,83,0.00,,,0.00,Wunderground v.1.15,2013-01-14 13:00:00,
2013-01-14 05:10:00,34.5,29.9,30.45,South,189,0.0,0.0,83,0.00,,,0.00,Wunderground v.1.15,2013-01-14 13:10:00,
2013-01-14 05:15:00,34.4,30.1,30.45,South,185,0.0,0.0,84,0.00,,,0.00,Wunderground v.1.15,2013-01-14 13:15:00,
2013-01-14 05:25:00,34.4,30.1,30.46,SSE,165,0.0,0.0,84,0.00,,,0.00,Wunderground v.1.15,2013-01-14 13:25:00,
2013-01-14 05:35:00,34.3,29.7,30.45,South,175,0.0,2.0,83,0.00,,,0.00,Wunderground v.1.15,2013-01-14 13:35:00,
2013-01-14 05:45:00,34.3,29.4,30.46,SSW,194,0.0,2.0,82,0.00,,,0.00,Wunderground v.1.15,2013-01-14 13:45:00,
2013-01-14 05:55:00,34.2,29.3,30.45,South,185,0.0,2.0,82,0.00,,,0.00,Wunderground v.1.15,2013-01-14 13:55:00,
2013-01-14 06:05:00,34.2,29.6,30.46,SSE,149,0.0,0.0,83,0.00,,,0.00,Wunderground v.1.15,2013-01-14 14:05:00,
2013-01-14 06:15:00,34.3,30.0,30.46,SSE,149,0.0,0.0,84,0.00,,,0.00,Wunderground v.1.15,2013-01-14 14:15:00,
2013-01-14 06:25:00,34.3,30.3,30.46,SSE,149,0.0,0.0,85,0.00,,,0.00,Wunderground v.1.15,2013-01-14 14:25:00,
2013-01-14 06:30:00,34.3,30.3,30.47,SSE,149,0.0,0.0,85,0.00,,,0.00,Wunderground v.1.15,2013-01-14 14:30:00,
2013-01-14 06:35:00,34.3,30.5,30.46,SSE,149,0.0,1.0,86,0.00,,,0.00,Wunderground v.1.15,2013-01-14 14:35:00,
2013-01-14 06:45:00,34.3,30.5,30.45,South,175,0.0,1.0,86,0.00,,,0.00,Wunderground v.1.15,2013-01-14 14:45:00,
2013-01-14 06:55:00,34.3,30.5,30.46,East,87,0.0,1.0,86,0.00,,,0.00,Wunderground v.1.15,2013-01-14 14:55:00,
2013-01-14 07:00:00,34.3,30.5,30.46,South,175,0.0,0.0,86,0.00,,,0.00,Wunderground v.1.15,2013-01-14 15:00:00,
2013-01-14 07:05:00,34.3,30.5,30.46,SSE,154,0.0,0.0,86,0.00,,,0.00,Wunderground v.1.15,2013-01-14 15:05:00,
2013-01-14 07:15:00,34.2,30.2,30.46,East,95,0.0,0.0,85,0.00,,,0.00,Wunderground v.1.15,2013-01-14 15:15:00,
2013-01-14 07:20:00,34.2,30.4,30.47,SSE,164,0.0,0.0,86,0.00,,,0.00,Wunderground v.1.15,2013-01-14 15:20:00,
2013-01-14 07:25:00,34.2,30.4,30.47,SSE,154,0.0,0.0,86,0.00,,,0.00,Wunderground v.1.15,2013-01-14 15:25:00,
2013-01-14 07:35:00,34.1,30.4,30.48,ESE,104,0.0,0.0,86,0.00,,,0.00,Wunderground v.1.15,2013-01-14 15:35:00,
2013-01-14 07:40:00,34.1,30.4,30.48,SSW,197,0.0,0.0,86,0.00,,,0.00,Wunderground v.1.15,2013-01-14 15:40:00,
2013-01-14 07:45:00,34.1,30.4,30.47,SE,138,0.0,0.0,86,0.00,,,0.00,Wunderground v.1.15,2013-01-14 15:45:00,
2013-01-14 07:55:00,34.1,30.6,30.47,ESE,123,0.0,0.0,87,0.00,,,0.00,Wunderground v.1.15,2013-01-14 15:55:00,
2013-01-14 08:05:00,32.5,28.8,30.47,NNW,337,1.0,6.0,86,0.00,,,0.00,Wunderground v.1.15,2013-01-14 16:05:00,
2013-01-14 08:15:00,33.8,30.1,30.48,South,170,1.0,2.0,86,0.00,,,0.00,Wunderground v.1.15,2013-01-14 16:15:00,
2013-01-14 08:25:00,33.7,29.7,30.48,South,180,0.0,0.0,85,0.00,,,0.00,Wunderground v.1.15,2013-01-14 16:25:00,
2013-01-14 08:35:00,33.6,29.6,30.47,East,79,0.0,2.0,85,0.00,,,0.00,Wunderground v.1.15,2013-01-14 16:35:00,
2013-01-14 08:45:00,33.5,29.8,30.48,SE,127,0.0,2.0,86,0.00,,,0.00,Wunderground v.1.15,2013-01-14 16:45:00,
2013-01-14 08:50:00,33.6,29.9,30.48,NW,305,0.0,2.0,86,0.00,,,0.00,Wunderground v.1.15,2013-01-14 16:50:00,
2013-01-14 08:55:00,33.6,29.9,30.47,South,175,0.0,2.0,86,0.00,,,0.00,Wunderground v.1.15,2013-01-14 16:55:00,
2013-01-14 09:05:00,33.6,29.9,30.48,SE,140,1.0,1.0,86,0.00,,,0.00,Wunderground v.1.15,2013-01-14 17:05:00,
2013-01-14 09:15:00,33.8,29.8,30.48,SSE,159,0.0,0.0,85,0.00,,,0.00,Wunderground v.1.15,2013-01-14 17:15:00,
2013-01-14 09:25:00,33.9,29.9,30.48,SW,233,0.0,0.0,85,0.00,,,0.00,Wunderground v.1.15,2013-01-14 17:25:00,
2013-01-14 09:35:00,34.1,30.1,30.48,SSE,153,0.0,3.0,85,0.00,,,0.00,Wunderground v.1.15,2013-01-14 17:35:00,
2013-01-14 09:45:00,34.3,30.3,30.48,East,81,0.0,3.0,85,0.00,,,0.00,Wunderground v.1.15,2013-01-14 17:45:00,
2013-01-14 09:50:00,34.5,30.5,30.49,ENE,58,0.0,3.0,85,0.00,,,0.00,Wunderground v.1.15,2013-01-14 17:50:00,
2013-01-14 09:55:00,34.6,30.6,30.48,East,89,0.0,3.0,85,0.00,,,0.00,Wunderground v.1.15,2013-01-14 17:55:00,
2013-01-14 10:05:00,34.8,30.5,30.49,SSW,207,0.0,0.0,84,0.00,,,0.00,Wunderground v.1.15,2013-01-14 18:05:00,
2013-01-14 10:15:00,35.0,30.9,30.49,SE,125,0.0,0.0,85,0.00,,,0.00,Wunderground v.1.15,2013-01-14 18:15:00,
2013-01-14 10:25:00,35.2,30.9,30.49,South,185,0.0,1.0,84,0.00,,,0.00,Wunderground v.1.15,2013-01-14 18:25:00,
2013-01-14 10:35:00,35.4,31.0,30.49,ESE,105,0.0,3.0,84,0.00,,,0.00,Wunderground v.1.15,2013-01-14 18:35:00,
2013-01-14 10:45:00,35.7,31.3,30.49,ESE,120,0.0,3.0,84,0.00,,,0.00,Wunderground v.1.15,2013-01-14 18:45:00,
2013-01-14 10:55:00,35.9,31.5,30.49,SE,133,0.0,3.0,84,0.00,,,0.00,Wunderground v.1.15,2013-01-14 18:55:00,
2013-01-14 11:05:00,36.2,31.5,30.48,South,175,0.0,0.0,83,0.00,,,0.00,Wunderground v.1.15,2013-01-14 19:05:00,
2013-01-14 11:15:00,36.5,31.8,30.48,SSE,151,0.0,0.0,83,0.00,,,0.00,Wunderground v.1.15,2013-01-14 19:15:00,
2013-01-14 11:25:00,36.7,31.7,30.48,SSW,210,0.0,0.0,82,0.00,,,0.00,Wunderground v.1.15,2013-01-14 19:25:00,
2013-01-14 11:35:00,36.7,31.7,30.48,ESE,119,0.0,3.0,82,0.00,,,0.00,Wunderground v.1.15,2013-01-14 19:35:00,
2013-01-14 11:45:00,36.8,31.8,30.48,SSE,155,0.0,3.0,82,0.00,,,0.00,Wunderground v.1.15,2013-01-14 19:45:00,
2013-01-14 11:55:00,37.0,32.0,30.48,SSE,156,0.0,3.0,82,0.00,,,0.00,Wunderground v.1.15,2013-01-14 19:55:00,
2013-01-14 12:05:00,37.3,32.0,30.48,SSE,150,0.0,0.0,81,0.00,,,0.00,Wunderground v.1.15,2013-01-14 20:05:00,
2013-01-14 12:15:00,37.5,32.2,30.48,South,185,0.0,0.0,81,0.00,,,0.00,Wunderground v.1.15,2013-01-14 20:15:00,
2013-01-14 12:25:00,37.6,32.0,30.48,SSE,166,0.0,0.0,80,0.00,,,0.00,Wunderground v.1.15,2013-01-14 20:25:00,
2013-01-14 12:35:00,37.8,32.2,30.48,East,91,0.0,4.0,80,0.00,,,0.00,Wunderground v.1.15,2013-01-14 20:35:00,
2013-01-14 12:45:00,38.1,32.2,30.48,South,169,0.0,4.0,79,0.00,,,0.00,Wunderground v.1.15,2013-01-14 20:45:00,
2013-01-14 12:55:00,38.3,32.4,30.48,SSE,157,0.0,4.0,79,0.00,,,0.00,Wunderground v.1.15,2013-01-14 20:55:00,
2013-01-14 13:05:00,38.4,32.1,30.48,South,175,0.0,0.0,78,0.00,,,0.00,Wunderground v.1.15,2013-01-14 21:05:00,
2013-01-14 13:15:00,38.7,32.1,30.48,SSE,151,0.0,0.0,77,0.00,,,0.00,Wunderground v.1.15,2013-01-14 21:15:00,
2013-01-14 13:25:00,38.8,31.9,30.48,South,189,0.0,1.0,76,0.00,,,0.00,Wunderground v.1.15,2013-01-14 21:25:00,
2013-01-14 13:35:00,38.9,32.0,30.48,SSE,151,0.0,2.0,76,0.00,,,0.00,Wunderground v.1.15,2013-01-14 21:35:00,
2013-01-14 13:45:00,38.9,32.0,30.48,SE,137,0.0,2.0,76,0.00,,,0.00,Wunderground v.1.15,2013-01-14 21:45:00,
2013-01-14 13:55:00,39.1,31.5,30.48,South,180,0.0,2.0,74,0.00,,,0.00,Wunderground v.1.15,2013-01-14 21:55:00,
2013-01-14 14:05:00,39.1,31.5,30.48,SSE,168,0.0,0.0,74,0.00,,,0.00,Wunderground v.1.15,2013-01-14 22:05:00,
2013-01-14 14:15:00,39.1,31.5,30.48,SSE,150,0.0,0.0,74,0.00,,,0.00,Wunderground v.1.15,2013-01-14 22:15:00,
2013-01-14 14:25:00,39.1,31.5,30.48,SSE,151,0.0,0.0,74,0.00,,,0.00,Wunderground v.1.15,2013-01-14 22:25:00,
2013-01-14 14:35:00,39.2,31.6,30.49,SE,133,0.0,1.0,74,0.00,,,0.00,Wunderground v.1.15,2013-01-14 22:35:00,
2013-01-14 14:45:00,39.4,31.5,30.49,SSE,160,0.0,2.0,73,0.00,,,0.00,Wunderground v.1.15,2013-01-14 22:45:00,
2013-01-14 14:55:00,39.6,31.7,30.49,SSE,153,0.0,2.0,73,0.00,,,0.00,Wunderground v.1.15,2013-01-14 22:55:00,
2013-01-14 15:05:00,39.8,31.8,30.49,SSE,148,0.0,0.0,73,0.00,,,0.00,Wunderground v.1.15,2013-01-14 23:05:00,
2013-01-14 15:15:00,39.8,31.5,30.49,SSE,147,0.0,0.0,72,0.00,,,0.00,Wunderground v.1.15,2013-01-14 23:15:00,
2013-01-14 15:25:00,39.8,31.8,30.49,SE,143,0.0,0.0,73,0.00,,,0.00,Wunderground v.1.15,2013-01-14 23:25:00,
2013-01-14 15:35:00,39.8,31.8,30.49,NE,45,0.0,3.0,73,0.00,,,0.00,Wunderground v.1.15,2013-01-14 23:35:00,
2013-01-14 15:45:00,39.7,31.8,30.49,ESE,103,0.0,3.0,73,0.00,,,0.00,Wunderground v.1.15,2013-01-14 23:45:00,
2013-01-14 15:55:00,39.6,31.7,30.49,SSE,151,0.0,3.0,73,0.00,,,0.00,Wunderground v.1.15,2013-01-14 23:55:00,
2013-01-14 16:05:00,39.4,31.5,30.49,South,180,0.0,1.0,73,0.00,,,0.00,Wunderground v.1.15,2013-01-15 00:05:00,
2013-01-14 16:15:00,39.1,31.2,30.49,South,180,0.0,0.0,73,0.00,,,0.00,Wunderground v.1.15,2013-01-15 00:15:00,
2013-01-14 16:25:00,38.9,31.0,30.49,South,185,0.0,1.0,73,0.00,,,0.00,Wunderground v.1.15,2013-01-15 00:25:00,
2013-01-14 16:35:00,38.7,30.8,30.49,South,191,0.0,2.0,73,0.00,,,0.00,Wunderground v.1.15,2013-01-15 00:35:00,
2013-01-14 16:40:00,38.6,30.7,30.49,SSW,201,0.0,2.0,73,0.00,,,0.00,Wunderground v.1.15,2013-01-15 00:40:00,
2013-01-14 16:45:00,38.5,30.6,30.49,SSW,208,0.0,2.0,73,0.00,,,0.00,Wunderground v.1.15,2013-01-15 00:45:00,
2013-01-14 16:55:00,38.3,30.7,30.50,SSE,153,0.0,2.0,74,0.00,,,0.00,Wunderground v.1.15,2013-01-15 00:55:00,
2013-01-14 17:05:00,38.2,30.6,30.50,SSE,157,0.0,0.0,74,0.00,,,0.00,Wunderground v.1.15,2013-01-15 01:05:00,
2013-01-14 17:15:00,38.0,30.8,30.50,ESE,116,0.0,0.0,75,0.00,,,0.00,Wunderground v.1.15,2013-01-15 01:15:00,
2013-01-14 17:25:00,37.9,30.7,30.50,SE,141,0.0,0.0,75,0.00,,,0.00,Wunderground v.1.15,2013-01-15 01:25:00,
2013-01-14 17:35:00,37.8,30.9,30.50,South,185,0.0,2.0,76,0.00,,,0.00,Wunderground v.1.15,2013-01-15 01:35:00,
2013-01-14 17:45:00,37.6,30.7,30.50,South,175,0.0,2.0,76,0.00,,,0.00,Wunderground v.1.15,2013-01-15 01:45:00,
2013-01-14 17:55:00,37.4,30.8,30.49,SE,140,0.0,2.0,77,0.00,,,0.00,Wunderground v.1.15,2013-01-15 01:55:00,
2013-01-14 18:05:00,37.2,31.0,30.49,SSE,167,0.0,0.0,78,0.00,,,0.00,Wunderground v.1.15,2013-01-15 02:05:00,
2013-01-14 18:15:00,37.0,30.8,30.50,NW,311,0.0,0.0,78,0.00,,,0.00,Wunderground v.1.15,2013-01-15 02:15:00,
2013-01-14 18:25:00,36.7,31.1,30.50,South,175,0.0,0.0,80,0.00,,,0.00,Wunderground v.1.15,2013-01-15 02:25:00,
2013-01-14 18:35:00,36.5,31.8,30.50,North,3,0.0,3.0,83,0.00,,,0.00,Wunderground v.1.15,2013-01-15 02:35:00,
2013-01-14 18:45:00,36.4,31.7,30.51,NNW,345,0.0,3.0,83,0.00,,,0.00,Wunderground v.1.15,2013-01-15 02:45:00,
2013-01-14 18:55:00,36.3,31.3,30.51,South,175,0.0,3.0,82,0.00,,,0.00,Wunderground v.1.15,2013-01-15 02:55:00,
2013-01-14 19:05:00,36.2,31.5,30.51,South,175,0.0,0.0,83,0.00,,,0.00,Wunderground v.1.15,2013-01-15 03:05:00,
2013-01-14 19:15:00,36.0,31.3,30.51,South,180,0.0,0.0,83,0.00,,,0.00,Wunderground v.1.15,2013-01-15 03:15:00,
2013-01-14 19:25:00,36.0,31.6,30.52,SW,227,0.0,0.0,84,0.00,,,0.00,Wunderground v.1.15,2013-01-15 03:25:00,
2013-01-14 19:30:00,35.9,31.5,30.51,SSW,205,0.0,0.0,84,0.00,,,0.00,Wunderground v.1.15,2013-01-15 03:30:00,
2013-01-14 19:35:00,36.0,31.6,30.52,SSW,204,0.0,1.0,84,0.00,,,0.00,Wunderground v.1.15,2013-01-15 03:35:00,
2013-01-14 19:45:00,36.0,31.6,30.51,SSW,202,0.0,1.0,84,0.00,,,0.00,Wunderground v.1.15,2013-01-15 03:45:00,
2013-01-14 19:55:00,36.1,31.4,30.52,South,185,0.0,1.0,83,0.00,,,0.00,Wunderground v.1.15,2013-01-15 03:55:00,
2013-01-14 20:00:00,36.2,31.5,30.52,SSW,211,0.0,0.0,83,0.00,,,0.00,Wunderground v.1.15,2013-01-15 04:00:00,
2013-01-14 20:05:00,36.3,31.6,30.52,West,259,0.0,0.0,83,0.00,,,0.00,Wunderground v.1.15,2013-01-15 04:05:00,
2013-01-14 20:15:00,36.4,31.4,30.52,WNW,289,0.0,0.0,82,0.00,,,0.00,Wunderground v.1.15,2013-01-15 04:15:00,
2013-01-14 20:25:00,36.5,31.5,30.53,SW,219,0.0,0.0,82,0.00,,,0.00,Wunderground v.1.15,2013-01-15 04:25:00,
2013-01-14 20:35:00,36.6,31.9,30.53,SW,216,0.0,1.0,83,0.00,,,0.00,Wunderground v.1.15,2013-01-15 04:35:00,
2013-01-14 20:45:00,36.7,32.0,30.53,SW,216,0.0,1.0,83,0.00,,,0.00,Wunderground v.1.15,2013-01-15 04:45:00,
2013-01-14 20:55:00,36.9,32.5,30.53,SW,216,0.0,1.0,84,0.00,,,0.00,Wunderground v.1.15,2013-01-15 04:55:00,
2013-01-14 21:00:00,36.9,32.5,30.52,SSW,211,0.0,0.0,84,0.00,,,0.00,Wunderground v.1.15,2013-01-15 05:00:00,
2013-01-14 21:10:00,37.0,32.3,30.53,South,185,0.0,0.0,83,0.00,,,0.00,Wunderground v.1.15,2013-01-15 05:10:00,
2013-01-14 21:15:00,37.0,32.3,30.52,WSW,253,0.0,0.0,83,0.00,,,0.00,Wunderground v.1.15,2013-01-15 05:15:00,
2013-01-14 21:25:00,37.1,33.0,30.52,South,189,0.0,0.0,85,0.00,,,0.00,Wunderground v.1.15,2013-01-15 05:25:00,
2013-01-14 21:35:00,37.1,33.3,30.53,SSE,162,0.0,1.0,86,0.00,,,0.00,Wunderground v.1.15,2013-01-15 05:35:00,
2013-01-14 21:45:00,37.1,33.3,30.53,SSE,162,0.0,1.0,86,0.00,,,0.00,Wunderground v.1.15,2013-01-15 05:45:00,
2013-01-14 21:55:00,37.1,33.3,30.53,SSE,162,0.0,1.0,86,0.00,,,0.00,Wunderground v.1.15,2013-01-15 05:55:00,
2013-01-14 22:05:00,37.1,33.3,30.53,SSE,162,0.0,0.0,86,0.00,,,0.00,Wunderground v.1.15,2013-01-15 06:05:00,
2013-01-14 22:15:00,37.2,33.4,30.53,SSE,162,0.0,0.0,86,0.00,,,0.00,Wunderground v.1.15,2013-01-15 06:15:00,
2013-01-14 22:25:00,37.2,33.7,30.53,SSE,162,0.0,0.0,87,0.00,,,0.00,Wunderground v.1.15,2013-01-15 06:25:00,
2013-01-14 22:35:00,37.2,34.0,30.53,SW,225,0.0,1.0,88,0.00,,,0.00,Wunderground v.1.15,2013-01-15 06:35:00,
2013-01-14 22:45:00,37.2,34.0,30.53,SW,226,0.0,1.0,88,0.00,,,0.00,Wunderground v.1.15,2013-01-15 06:45:00,
2013-01-14 22:50:00,37.2,34.0,30.53,SW,226,0.0,1.0,88,0.00,,,0.00,Wunderground v.1.15,2013-01-15 06:50:00,
2013-01-14 22:55:00,37.2,34.0,30.53,SW,226,0.0,1.0,88,0.00,,,0.00,Wunderground v.1.15,2013-01-15 06:55:00,
2013-01-14 23:05:00,37.3,34.1,30.54,SW,226,0.0,0.0,88,0.00,,,0.00,Wunderground v.1.15,2013-01-15 07:05:00,
2013-01-14 23:15:00,37.3,34.1,30.54,SW,226,0.0,0.0,88,0.00,,,0.00,Wunderground v.1.15,2013-01-15 07:15:00,
2013-01-14 23:25:00,37.3,34.1,30.54,SW,226,0.0,0.0,88,0.00,,,0.00,Wunderground v.1.15,2013-01-15 07:25:00,
2013-01-14 23:35:00,37.3,34.1,30.54,SW,226,0.0,0.0,88,0.00,,,0.00,Wunderground v.1.15,2013-01-15 07:35:00,
2013-01-14 23:45:00,37.3,34.1,30.54,SW,226,0.0,0.0,88,0.00,,,0.00,Wunderground v.1.15,2013-01-15 07:45:00,
2013-01-14 23:55:00,37.4,34.2,30.54,SW,226,0.0,0.0,88,0.00,,,0.00,Wunderground v.1.15,2013-01-15 07:55:00,